EGGP/LPL METAR and TAF weather

Enter ICAO airport designator
Station Type Date Time Source
EGGP METAR 2021/05/14 03:20 UTC NOAA

EGGP 140320Z AUTO 08008KT 9999 NCD 10/08 Q1010


Station Type Date Time Source
EGGP Decoded METAR 2021/05/14 03:20 UTC NOAA

Liverpool Airport , United Kingdom (EGGP) 53-20N 002-51W
May 13, 2021 - 11:20 PM EDT / 2021.05.14 0320 UTC
Wind: from the E (080 degrees) at 9 MPH (8 KT):0
Visibility: greater than 7 mile(s):0
Temperature: 50 F (10 C)
Dew Point: 46 F (8 C)
Relative Humidity: 87%
Pressure (altimeter): 29.83 in. Hg (1010 hPa)
ob: EGGP 140320Z AUTO 08008KT 9999 NCD 10/08 Q1010
cycle: 3

Station Type Date Time Source
EGGP TAF 2021/05/13 18:09 UTC NOAA

TAF TAF EGGP 131656Z 1318/1418 36010KT 9999 SCT025
TEMPO 1318/1319 6000 SHRA
BECMG 1321/1324 06005KT PROB30
TEMPO 1414/1418 7000 SHRA

Example: see airport list